createdAt,value
2023-04-08T00:01:56.409Z,59.88
2023-04-08T00:04:22.937Z,59.26
2023-04-08T00:06:49.443Z,59.10
2023-04-08T00:09:15.840Z,59.45
2023-04-08T00:11:42.184Z,59.59
2023-04-08T00:14:08.557Z,59.18
2023-04-08T00:16:35.257Z,59.82
2023-04-08T00:19:01.592Z,59.17
2023-04-08T00:21:27.924Z,59.33
2023-04-08T00:23:54.295Z,59.12
2023-04-08T00:26:20.693Z,59.42
2023-04-08T00:28:47.124Z,60.11
2023-04-08T00:31:13.523Z,60.79
2023-04-08T00:33:39.933Z,61.37
2023-04-08T00:36:06.359Z,61.91
2023-04-08T00:38:32.716Z,61.69
2023-04-08T00:40:59.041Z,62.59
2023-04-08T00:43:25.377Z,62.92
2023-04-08T00:45:51.801Z,62.62
2023-04-08T00:48:18.221Z,62.19
2023-04-08T00:50:44.560Z,62.56
2023-04-08T00:53:10.922Z,62.61
2023-04-08T00:55:37.306Z,62.56
2023-04-08T00:58:03.647Z,62.10
2023-04-08T01:00:30.039Z,61.18
2023-04-08T01:02:56.558Z,61.28
2023-04-08T01:05:22.979Z,60.80
2023-04-08T01:07:49.379Z,61.22
2023-04-08T01:10:15.728Z,60.97
2023-04-08T01:12:42.074Z,61.18
2023-04-08T01:15:08.466Z,61.05
2023-04-08T01:17:34.911Z,60.40
2023-04-08T01:20:01.282Z,60.63
2023-04-08T01:22:27.661Z,60.56
2023-04-08T01:24:54.002Z,60.60
2023-04-08T01:27:20.352Z,61.56
2023-04-08T01:29:46.777Z,62.09
2023-04-08T01:32:13.113Z,62.88
2023-04-08T01:34:39.491Z,63.58
2023-04-08T01:37:05.886Z,63.48
2023-04-08T01:39:32.231Z,64.53
2023-04-08T01:41:58.569Z,64.53
2023-04-08T01:44:24.941Z,64.62
2023-04-08T01:46:51.366Z,64.38
2023-04-08T01:49:17.786Z,64.42
2023-04-08T01:51:44.124Z,64.08
2023-04-08T01:54:10.470Z,63.77
2023-04-08T01:56:37.961Z,63.25
2023-04-08T01:59:04.354Z,63.14
2023-04-08T02:01:30.980Z,63.11
2023-04-08T02:03:57.669Z,63.03
2023-04-08T02:06:24.231Z,63.23
2023-04-08T02:08:50.809Z,62.91
2023-04-08T02:11:17.356Z,62.81
2023-04-08T02:13:43.763Z,63.02
2023-04-08T02:16:10.235Z,62.87
2023-04-08T02:18:36.612Z,62.61
2023-04-08T02:21:02.960Z,63.30
2023-04-08T02:23:29.303Z,63.15
2023-04-08T02:25:55.697Z,62.95
2023-04-08T02:28:22.077Z,62.26
2023-04-08T02:30:48.468Z,62.25
2023-04-08T02:33:14.895Z,62.00
2023-04-08T02:35:41.407Z,61.93
2023-04-08T02:38:07.860Z,62.25
2023-04-08T02:40:34.216Z,62.58
2023-04-08T02:43:00.598Z,62.60
2023-04-08T02:45:27.014Z,62.54
2023-04-08T02:47:53.409Z,62.18
2023-04-08T02:50:19.804Z,62.38
2023-04-08T02:52:46.185Z,61.78
2023-04-08T02:55:12.532Z,61.82
2023-04-08T02:57:38.870Z,61.75
2023-04-08T03:00:05.264Z,61.77
2023-04-08T03:02:31.786Z,61.77
2023-04-08T03:04:58.261Z,62.15
2023-04-08T03:07:24.622Z,62.03
2023-04-08T03:09:51.024Z,62.45
2023-04-08T03:12:17.370Z,61.89
2023-04-08T03:14:43.752Z,61.97
2023-04-08T03:17:10.141Z,62.32
2023-04-08T03:19:36.482Z,62.29
2023-04-08T03:22:02.849Z,62.03
2023-04-08T03:24:29.233Z,61.79
2023-04-08T03:26:55.629Z,61.96
2023-04-08T03:29:21.999Z,62.49
2023-04-08T03:31:48.540Z,62.30
2023-04-08T03:34:14.916Z,62.26
2023-04-08T03:36:41.241Z,62.46
2023-04-08T03:39:07.592Z,62.60
2023-04-08T03:41:33.920Z,62.63
2023-04-08T03:44:00.300Z,62.89
2023-04-08T03:46:26.791Z,63.18
2023-04-08T03:48:53.217Z,63.16
2023-04-08T03:51:19.585Z,62.50
2023-04-08T03:53:45.990Z,62.57
2023-04-08T03:56:12.385Z,62.79
2023-04-08T03:58:38.722Z,63.17
2023-04-08T04:01:05.096Z,62.86
2023-04-08T04:03:31.614Z,62.69
2023-04-08T04:05:58.024Z,62.94
2023-04-08T04:08:24.414Z,62.89
2023-04-08T04:10:50.808Z,62.79
2023-04-08T04:13:17.206Z,62.95
2023-04-08T04:15:43.598Z,62.84
2023-04-08T04:18:10.060Z,62.53
2023-04-08T04:20:36.517Z,62.28
2023-04-08T04:23:02.886Z,62.19
2023-04-08T04:25:29.350Z,61.93
2023-04-08T04:27:55.698Z,61.93
2023-04-08T04:30:22.037Z,61.93
2023-04-08T04:32:48.453Z,62.01
2023-04-08T04:35:14.984Z,61.52
2023-04-08T04:37:41.397Z,61.65
2023-04-08T04:40:07.746Z,62.67
2023-04-08T04:42:34.084Z,62.47
2023-04-08T04:45:00.486Z,62.01
2023-04-08T04:47:26.855Z,61.97
2023-04-08T04:49:53.255Z,62.95
2023-04-08T04:52:19.650Z,63.19
2023-04-08T04:54:46.026Z,63.46
2023-04-08T04:57:12.415Z,63.92
2023-04-08T04:59:38.799Z,64.57
2023-04-08T05:02:05.255Z,64.87
2023-04-08T05:04:31.714Z,64.31
2023-04-08T05:06:58.086Z,63.98
2023-04-08T05:09:24.432Z,63.61
2023-04-08T05:11:50.808Z,63.89
2023-04-08T05:14:17.194Z,64.49
2023-04-08T05:16:43.537Z,64.44
2023-04-08T05:19:09.907Z,64.93
2023-04-08T05:21:36.301Z,63.84
2023-04-08T05:24:02.797Z,63.72
2023-04-08T05:26:29.185Z,63.73
2023-04-08T05:28:55.573Z,63.46
2023-04-08T05:31:22.035Z,63.36
2023-04-08T05:33:48.403Z,63.25
2023-04-08T05:36:14.773Z,63.94
2023-04-08T05:38:41.107Z,63.30
2023-04-08T05:41:07.451Z,63.57
2023-04-08T05:43:33.836Z,64.06
2023-04-08T05:46:00.199Z,64.15
2023-04-08T05:48:26.564Z,64.18
2023-04-08T05:50:52.934Z,63.90
2023-04-08T05:53:19.319Z,64.10
2023-04-08T05:55:45.707Z,64.46
2023-04-08T05:58:12.085Z,64.81
2023-04-08T06:00:38.466Z,64.44
2023-04-08T06:03:05.003Z,64.49
2023-04-08T06:05:31.653Z,64.83
2023-04-08T06:07:58.007Z,64.99
2023-04-08T06:10:24.373Z,65.39
2023-04-08T06:12:50.751Z,66.08
2023-04-08T06:15:17.087Z,66.55
2023-04-08T06:17:43.514Z,67.22
2023-04-08T06:20:10.090Z,68.18
2023-04-08T06:22:36.460Z,67.27
2023-04-08T06:25:02.856Z,67.56
2023-04-08T06:27:29.240Z,67.95
2023-04-08T06:29:55.590Z,67.85
2023-04-08T06:32:21.998Z,68.26
2023-04-08T06:34:48.355Z,67.61
2023-04-08T06:37:14.729Z,67.90
2023-04-08T06:39:41.081Z,67.95
2023-04-08T06:42:07.455Z,68.00
2023-04-08T06:44:33.829Z,68.29
2023-04-08T06:47:00.246Z,68.32
2023-04-08T06:49:26.587Z,67.59
2023-04-08T06:51:52.948Z,67.58
2023-04-08T06:54:19.310Z,67.72
2023-04-08T06:56:45.685Z,67.31
2023-04-08T06:59:12.033Z,67.12
2023-04-08T07:01:38.509Z,66.67
2023-04-08T07:04:04.981Z,67.14
2023-04-08T07:06:31.359Z,66.85
2023-04-08T07:08:57.695Z,66.44
2023-04-08T07:11:24.107Z,66.62
2023-04-08T07:13:50.442Z,66.76
2023-04-08T07:16:16.867Z,67.10
2023-04-08T07:18:43.217Z,67.63
2023-04-08T07:21:09.603Z,66.63
2023-04-08T07:23:35.990Z,66.98
2023-04-08T07:26:02.332Z,66.10
2023-04-08T07:28:28.685Z,66.24
2023-04-08T07:30:55.053Z,66.62
2023-04-08T07:33:21.465Z,66.13
2023-04-08T07:35:47.816Z,65.46
2023-04-08T07:38:14.185Z,65.88
2023-04-08T07:40:40.609Z,65.95
2023-04-08T07:43:06.954Z,66.60
2023-04-08T07:45:33.287Z,67.24
2023-04-08T07:47:59.700Z,67.25
2023-04-08T07:50:26.095Z,65.82
2023-04-08T07:52:52.432Z,65.33
2023-04-08T07:55:18.801Z,64.37
2023-04-08T07:57:45.464Z,65.49
2023-04-08T08:00:11.944Z,65.53
2023-04-08T08:02:38.338Z,65.23
2023-04-08T08:05:04.810Z,65.35
2023-04-08T08:07:31.232Z,65.24
2023-04-08T08:09:57.637Z,64.94
2023-04-08T08:12:24.047Z,66.23
2023-04-08T08:14:50.428Z,65.00
2023-04-08T08:17:16.809Z,64.99
2023-04-08T08:19:43.193Z,63.92
2023-04-08T08:22:09.534Z,63.77
2023-04-08T08:24:35.864Z,65.20
2023-04-08T08:27:02.208Z,64.76
2023-04-08T08:29:28.559Z,65.24
2023-04-08T08:31:54.905Z,65.01
2023-04-08T08:34:21.275Z,65.20
2023-04-08T08:36:47.675Z,63.20
2023-04-08T08:39:14.067Z,64.14
2023-04-08T08:41:40.410Z,65.22
2023-04-08T08:44:06.808Z,64.50
2023-04-08T08:46:33.260Z,63.57
2023-04-08T08:48:59.665Z,63.77
2023-04-08T08:51:26.050Z,63.55
2023-04-08T08:53:52.569Z,63.59
2023-04-08T08:56:19.297Z,64.02
2023-04-08T08:58:45.784Z,63.36
2023-04-08T09:01:12.188Z,63.94
2023-04-08T09:03:38.939Z,61.57
2023-04-08T09:06:05.589Z,60.77
2023-04-08T09:08:31.961Z,62.86
2023-04-08T09:10:58.404Z,58.68
2023-04-08T09:13:24.819Z,60.50
2023-04-08T09:15:51.228Z,61.77
2023-04-08T09:18:17.875Z,59.47
2023-04-08T09:20:44.266Z,59.91
2023-04-08T09:23:10.695Z,60.50
2023-04-08T09:25:37.099Z,58.68
2023-04-08T09:28:03.447Z,59.43
2023-04-08T09:30:29.843Z,59.41
2023-04-08T09:32:56.242Z,57.36
2023-04-08T09:35:22.665Z,57.18
2023-04-08T09:37:49.060Z,55.18
2023-04-08T09:40:15.410Z,54.41
2023-04-08T09:42:41.803Z,56.71
2023-04-08T09:45:08.214Z,56.86
2023-04-08T09:47:34.604Z,58.99
2023-04-08T09:50:00.993Z,57.65
2023-04-08T09:52:27.350Z,57.70
2023-04-08T09:54:53.767Z,58.15
2023-04-08T09:57:20.119Z,57.55
2023-04-08T09:59:46.450Z,58.50
2023-04-08T10:02:12.878Z,57.07
2023-04-08T10:04:39.278Z,58.34
2023-04-08T10:07:05.616Z,56.53
2023-04-08T10:09:31.958Z,56.88
2023-04-08T10:11:58.335Z,57.30
2023-04-08T10:14:24.728Z,56.69
2023-04-08T10:16:51.130Z,56.41
2023-04-08T10:19:17.832Z,54.96
2023-04-08T10:21:44.185Z,53.37
2023-04-08T10:24:10.517Z,53.50
2023-04-08T10:26:36.872Z,53.09
2023-04-08T10:29:03.201Z,54.27
2023-04-08T10:31:29.587Z,53.11
2023-04-08T10:33:55.993Z,52.68
2023-04-08T10:36:22.394Z,52.58
2023-04-08T10:38:48.733Z,53.98
2023-04-08T10:41:15.071Z,53.40
2023-04-08T10:43:41.406Z,52.91
2023-04-08T10:46:07.787Z,52.08
2023-04-08T10:48:34.169Z,53.50
2023-04-08T10:51:00.560Z,51.94
2023-04-08T10:53:26.944Z,52.37
2023-04-08T10:55:53.283Z,53.13
2023-04-08T10:58:19.613Z,52.04
2023-04-08T11:00:45.947Z,51.82
2023-04-08T11:03:14.373Z,50.93
2023-04-08T11:05:41.971Z,52.41
2023-04-08T11:08:08.507Z,55.35
2023-04-08T11:10:34.842Z,52.25
2023-04-08T11:13:01.193Z,52.42
2023-04-08T11:15:27.583Z,51.46
2023-04-08T11:17:54.042Z,52.09
2023-04-08T11:20:20.459Z,50.58
2023-04-08T11:22:46.847Z,51.99
2023-04-08T11:25:13.249Z,50.14
2023-04-08T11:27:39.617Z,51.31
2023-04-08T11:30:05.996Z,51.12
2023-04-08T11:32:32.449Z,50.75
2023-04-08T11:34:58.795Z,49.30
2023-04-08T11:37:25.131Z,50.11
2023-04-08T11:39:51.506Z,49.98
2023-04-08T11:42:17.889Z,48.94
2023-04-08T11:44:44.273Z,48.91
2023-04-08T11:47:10.630Z,49.46
2023-04-08T11:49:36.966Z,49.91
2023-04-08T11:52:03.350Z,48.88
2023-04-08T11:54:29.719Z,48.95
2023-04-08T11:56:56.115Z,47.16
2023-04-08T11:59:22.500Z,47.39
2023-04-08T12:01:48.889Z,47.95
2023-04-08T12:04:15.431Z,48.02
2023-04-08T12:06:41.901Z,46.96
2023-04-08T12:09:08.242Z,49.79
2023-04-08T12:11:34.588Z,46.46
2023-04-08T12:14:00.930Z,45.93
2023-04-08T12:16:27.410Z,45.29
2023-04-08T12:18:53.852Z,44.85
2023-04-08T12:21:20.244Z,46.23
2023-04-08T12:23:46.628Z,45.20
2023-04-08T12:26:13.015Z,44.45
2023-04-08T12:28:39.405Z,45.33
2023-04-08T12:31:05.794Z,45.37
2023-04-08T12:33:32.215Z,45.88
2023-04-08T12:35:58.669Z,41.86
2023-04-08T12:38:25.130Z,42.20
2023-04-08T12:40:51.465Z,43.11
2023-04-08T12:43:17.869Z,42.68
2023-04-08T12:45:44.211Z,41.20
2023-04-08T12:48:10.645Z,43.50
2023-04-08T12:50:37.072Z,42.05
2023-04-08T12:53:03.403Z,43.03
2023-04-08T12:55:29.747Z,40.90
2023-04-08T12:57:56.128Z,40.21
2023-04-08T13:00:22.477Z,41.65
2023-04-08T13:02:48.935Z,41.97
2023-04-08T13:05:15.584Z,41.79
2023-04-08T13:07:43.360Z,42.75
2023-04-08T13:10:09.888Z,42.24
2023-04-08T13:12:36.280Z,43.27
2023-04-08T13:15:02.616Z,42.63
2023-04-08T13:17:28.969Z,42.71
2023-04-08T13:19:55.344Z,41.82
2023-04-08T13:22:21.694Z,42.17
2023-04-08T13:24:48.045Z,41.66
2023-04-08T13:27:14.433Z,41.76
2023-04-08T13:29:40.803Z,41.37
2023-04-08T13:32:07.205Z,41.67
2023-04-08T13:34:33.575Z,46.17
2023-04-08T13:36:59.957Z,43.80
2023-04-08T13:39:26.298Z,42.48
2023-04-08T13:41:52.640Z,43.12
2023-04-08T13:44:19.011Z,43.46
2023-04-08T13:46:45.386Z,40.09
2023-04-08T13:49:11.734Z,41.27
2023-04-08T13:51:38.065Z,41.24
2023-04-08T13:54:04.422Z,40.09
2023-04-08T13:56:30.833Z,40.65
2023-04-08T13:58:57.805Z,43.65
2023-04-08T14:01:24.332Z,39.53
2023-04-08T14:03:50.764Z,40.55
2023-04-08T14:06:17.147Z,40.34
2023-04-08T14:08:43.490Z,41.69
2023-04-08T14:11:09.844Z,40.38
2023-04-08T14:13:36.222Z,41.55
2023-04-08T14:16:02.614Z,39.87
2023-04-08T14:18:28.965Z,40.72
2023-04-08T14:20:55.351Z,42.20
2023-04-08T14:23:21.703Z,39.13
2023-04-08T14:25:48.034Z,40.77
2023-04-08T14:28:14.377Z,40.07
2023-04-08T14:30:40.732Z,41.49
2023-04-08T14:33:07.216Z,40.89
2023-04-08T14:35:33.929Z,39.62
2023-04-08T14:38:00.674Z,39.54
2023-04-08T14:40:27.069Z,39.67
2023-04-08T14:42:53.409Z,39.72
2023-04-08T14:45:19.800Z,41.02
2023-04-08T14:47:46.264Z,39.66
2023-04-08T14:50:12.657Z,40.98
2023-04-08T14:52:39.006Z,38.86
2023-04-08T14:55:05.382Z,39.52
2023-04-08T14:57:31.727Z,41.15
2023-04-08T14:59:58.062Z,40.20
2023-04-08T15:02:24.505Z,41.40
2023-04-08T15:04:50.975Z,40.87
2023-04-08T15:07:17.322Z,39.56
2023-04-08T15:09:43.653Z,39.32
2023-04-08T15:12:10.457Z,39.34
2023-04-08T15:14:37.624Z,41.90
2023-04-08T15:17:03.999Z,39.84
2023-04-08T15:19:30.385Z,39.72
2023-04-08T15:21:56.722Z,40.64
2023-04-08T15:24:23.058Z,40.53
2023-04-08T15:26:49.439Z,40.51
2023-04-08T15:29:15.828Z,40.38
2023-04-08T15:31:42.285Z,40.57
2023-04-08T15:34:08.703Z,39.94
2023-04-08T15:36:35.072Z,39.99
2023-04-08T15:39:01.457Z,40.21
2023-04-08T15:41:27.845Z,40.25
2023-04-08T15:43:54.206Z,40.77
2023-04-08T15:46:20.626Z,38.79
2023-04-08T15:48:47.081Z,37.84
2023-04-08T15:51:13.420Z,39.47
2023-04-08T15:53:39.765Z,38.01
2023-04-08T15:56:06.099Z,38.31
2023-04-08T15:58:32.426Z,39.45
2023-04-08T16:00:58.808Z,39.03
2023-04-08T16:03:25.444Z,39.92
2023-04-08T16:05:51.882Z,40.39
2023-04-08T16:08:18.223Z,40.39
2023-04-08T16:10:44.602Z,40.52
2023-04-08T16:13:11.010Z,40.13
2023-04-08T16:15:37.364Z,39.58
2023-04-08T16:18:03.736Z,40.45
2023-04-08T16:20:30.225Z,39.72
2023-04-08T16:22:56.618Z,40.30
2023-04-08T16:25:23.019Z,40.44
2023-04-08T16:27:49.378Z,40.76
2023-04-08T16:30:15.717Z,40.15
2023-04-08T16:32:42.135Z,40.74
2023-04-08T16:35:08.545Z,40.34
2023-04-08T16:37:34.898Z,38.99
2023-04-08T16:40:01.239Z,39.59
2023-04-08T16:42:27.662Z,39.43
2023-04-08T16:44:54.005Z,39.69
2023-04-08T16:47:20.406Z,41.22
2023-04-08T16:49:46.775Z,40.18
2023-04-08T16:52:13.155Z,39.84
2023-04-08T16:54:39.497Z,40.06
2023-04-08T16:57:05.849Z,39.61
2023-04-08T16:59:32.243Z,39.31
2023-04-08T17:01:58.681Z,40.11
2023-04-08T17:04:25.188Z,40.24
2023-04-08T17:06:51.608Z,39.88
2023-04-08T17:09:17.989Z,39.77
2023-04-08T17:11:44.404Z,39.78
2023-04-08T17:14:10.816Z,40.87
2023-04-08T17:16:37.254Z,40.87
2023-04-08T17:19:03.630Z,41.00
2023-04-08T17:21:30.026Z,40.95
2023-04-08T17:23:56.408Z,41.24
2023-04-08T17:26:22.764Z,41.15
2023-04-08T17:28:49.155Z,41.53
2023-04-08T17:31:15.549Z,41.68
2023-04-08T17:33:41.961Z,42.61
2023-04-08T17:36:08.407Z,41.34
2023-04-08T17:38:34.872Z,43.24
2023-04-08T17:41:01.250Z,42.33
2023-04-08T17:43:27.585Z,42.89
2023-04-08T17:45:53.995Z,42.72
2023-04-08T17:48:20.448Z,42.91
2023-04-08T17:50:46.794Z,42.96
2023-04-08T17:53:13.172Z,44.20
2023-04-08T17:55:39.524Z,44.34
2023-04-08T17:58:05.871Z,43.38
2023-04-08T18:00:32.224Z,43.78
2023-04-08T18:02:58.759Z,44.11
2023-04-08T18:05:25.283Z,44.65
2023-04-08T18:07:51.681Z,44.56
2023-04-08T18:10:18.081Z,45.04
2023-04-08T18:12:44.466Z,45.41
2023-04-08T18:15:10.852Z,44.94
2023-04-08T18:17:37.223Z,45.63
2023-04-08T18:20:03.608Z,45.78
2023-04-08T18:22:30.011Z,45.54
2023-04-08T18:24:56.366Z,46.57
2023-04-08T18:27:22.753Z,45.70
2023-04-08T18:29:49.115Z,46.21
2023-04-08T18:32:15.498Z,46.60
2023-04-08T18:34:41.845Z,46.35
2023-04-08T18:37:08.220Z,46.65
2023-04-08T18:39:34.562Z,46.60
2023-04-08T18:42:00.929Z,46.33
2023-04-08T18:44:27.281Z,47.09
2023-04-08T18:46:54.210Z,47.13
2023-04-08T18:49:20.576Z,47.51
2023-04-08T18:51:58.940Z,47.39
2023-04-08T18:54:28.616Z,48.02
2023-04-08T18:56:54.983Z,48.00
2023-04-08T18:59:21.475Z,48.39
2023-04-08T19:01:48.177Z,48.80
2023-04-08T19:04:14.613Z,49.01
2023-04-08T19:06:41.095Z,49.24
2023-04-08T19:09:07.556Z,49.30
2023-04-08T19:11:33.953Z,48.96
2023-04-08T19:14:00.347Z,49.41
2023-04-08T19:16:27.906Z,49.97
2023-04-08T19:18:54.358Z,49.69
2023-04-08T19:21:20.721Z,50.01
2023-04-08T19:23:47.232Z,49.90
2023-04-08T19:26:13.609Z,50.17
2023-04-08T19:28:39.969Z,49.98
2023-04-08T19:31:06.348Z,50.50
2023-04-08T19:33:32.741Z,50.60
2023-04-08T19:35:59.154Z,50.77
2023-04-08T19:38:25.591Z,50.87
2023-04-08T19:40:51.943Z,51.25
2023-04-08T19:43:18.320Z,51.29
2023-04-08T19:45:44.950Z,51.17
2023-04-08T19:48:11.371Z,51.84
2023-04-08T19:50:37.771Z,51.13
2023-04-08T19:53:04.159Z,51.11
2023-04-08T19:55:30.697Z,51.58
2023-04-08T19:57:57.032Z,51.07
2023-04-08T20:00:23.414Z,51.65
2023-04-08T20:02:49.933Z,51.29
2023-04-08T20:05:16.430Z,51.87
2023-04-08T20:07:42.784Z,51.96
2023-04-08T20:10:09.690Z,51.73
2023-04-08T20:12:36.316Z,52.36
2023-04-08T20:15:02.738Z,52.25
2023-04-08T20:17:29.202Z,52.12
2023-04-08T20:19:55.635Z,52.60
2023-04-08T20:22:22.048Z,53.09
2023-04-08T20:24:48.486Z,52.63
2023-04-08T20:27:14.823Z,53.38
2023-04-08T20:29:41.160Z,53.80
2023-04-08T20:32:07.496Z,53.81
2023-04-08T20:34:34.004Z,53.57
2023-04-08T20:37:00.598Z,53.64
2023-04-08T20:39:26.986Z,54.07
2023-04-08T20:41:53.322Z,54.33
2023-04-08T20:44:19.656Z,54.42
2023-04-08T20:46:47.027Z,54.51
2023-04-08T20:49:14.286Z,54.92
2023-04-08T20:51:40.674Z,55.45
2023-04-08T20:54:07.072Z,55.50
2023-04-08T20:56:33.471Z,55.79
2023-04-08T20:59:00.403Z,56.35
2023-04-08T21:01:27.070Z,56.20
2023-04-08T21:03:53.587Z,56.36
2023-04-08T21:06:19.965Z,56.30
2023-04-08T21:08:46.339Z,56.41
2023-04-08T21:11:12.717Z,56.29
2023-04-08T21:13:39.106Z,56.37
2023-04-08T21:16:05.522Z,57.11
2023-04-08T21:18:31.926Z,57.08
2023-04-08T21:20:58.270Z,57.06
2023-04-08T21:23:24.601Z,57.00
2023-04-08T21:25:50.939Z,56.85
2023-04-08T21:28:17.277Z,56.83
2023-04-08T21:30:43.658Z,57.12
2023-04-08T21:33:10.067Z,57.65
2023-04-08T21:35:36.479Z,57.16
2023-04-08T21:38:02.885Z,57.08
2023-04-08T21:40:29.227Z,56.81
2023-04-08T21:42:55.604Z,56.53
2023-04-08T21:45:22.001Z,56.71
2023-04-08T21:47:48.462Z,57.08
2023-04-08T21:50:14.838Z,57.02
2023-04-08T21:52:43.958Z,57.19
2023-04-08T21:55:10.477Z,57.02
2023-04-08T21:57:36.862Z,57.41
2023-04-08T22:00:03.244Z,57.90
2023-04-08T22:02:29.722Z,58.15
2023-04-08T22:04:56.164Z,58.40
2023-04-08T22:07:22.524Z,58.54
2023-04-08T22:09:48.885Z,58.80
2023-04-08T22:12:15.282Z,59.30
2023-04-08T22:14:41.670Z,59.38
2023-04-08T22:17:08.191Z,60.06
2023-04-08T22:19:34.654Z,60.34
2023-04-08T22:22:01.060Z,59.73
2023-04-08T22:24:27.411Z,59.25
2023-04-08T22:26:53.815Z,59.00
2023-04-08T22:29:20.179Z,59.72
2023-04-08T22:31:46.529Z,59.77
2023-04-08T22:34:12.893Z,60.64
2023-04-08T22:36:39.231Z,60.93
2023-04-08T22:39:05.568Z,61.58
2023-04-08T22:41:31.946Z,61.58
2023-04-08T22:43:58.305Z,62.08
2023-04-08T22:46:24.671Z,62.09
2023-04-08T22:48:51.298Z,62.46
2023-04-08T22:51:17.867Z,62.32
2023-04-08T22:53:44.210Z,62.69
2023-04-08T22:56:10.556Z,62.26
2023-04-08T22:58:36.986Z,62.63
2023-04-08T23:01:03.343Z,62.56
2023-04-08T23:03:29.824Z,62.74
2023-04-08T23:05:56.174Z,63.25
2023-04-08T23:08:22.516Z,62.80
2023-04-08T23:10:48.902Z,63.19
2023-04-08T23:13:15.295Z,62.62
2023-04-08T23:15:41.762Z,62.30
2023-04-08T23:18:08.126Z,62.35
2023-04-08T23:20:34.504Z,62.21
2023-04-08T23:23:00.893Z,62.15
2023-04-08T23:25:27.281Z,62.04
2023-04-08T23:27:53.639Z,62.14
2023-04-08T23:30:20.017Z,61.80
2023-04-08T23:32:46.401Z,61.68
2023-04-08T23:35:12.797Z,60.80
2023-04-08T23:37:39.194Z,60.80
2023-04-08T23:40:05.542Z,60.68
2023-04-08T23:42:31.931Z,60.48
2023-04-08T23:44:58.293Z,60.86
2023-04-08T23:47:24.679Z,60.40
2023-04-08T23:49:51.062Z,61.23
2023-04-08T23:52:17.410Z,61.28
2023-04-08T23:54:43.741Z,62.20
2023-04-08T23:57:10.126Z,61.46
2023-04-08T23:59:36.490Z,60.99
